Time;durP1;ratioP1;P1;durP2;ratioP2;P2;SDS_P1;SDS_P2;PMS_P1;PMS_P2;Temp;Humidity;BMP_temperature;BMP_pressure;BME280_temperature;BME280_humidity;BME280_pressure;Samples;Min_cycle;Max_cycle;Signal;HPM_P1;HPM_P2
2022/06/25 00:10:03;;;;;;;4.00;2.70;;;26.10;52.00;;;;;;220428;1268;25162;-49
2022/06/25 00:15:07;;;;;;;6.30;2.70;;;26.10;52.00;;;;;;220516;1267;24237;-54
2022/06/25 00:20:10;;;;;;;4.90;2.50;;;26.10;52.00;;;;;;220569;1267;23153;-48
2022/06/25 00:25:13;;;;;;;5.70;2.70;;;26.10;52.00;;;;;;220467;1268;22545;-48
2022/06/25 00:30:15;;;;;;;3.70;2.50;;;26.10;52.10;;;;;;220445;1268;23930;-48
2022/06/25 00:35:17;;;;;;;7.10;3.10;;;26.10;52.40;;;;;;220495;1268;24848;-47
2022/06/25 00:40:20;;;;;;;3.80;2.50;;;26.10;52.10;;;;;;221095;1268;24143;-51
2022/06/25 00:45:22;;;;;;;2.70;2.40;;;26.10;52.20;;;;;;220432;1267;24259;-51
2022/06/25 00:50:29;;;;;;;5.30;2.90;;;26.10;52.50;;;;;;220310;1267;22547;-51
2022/06/25 00:55:38;;;;;;;4.20;2.80;;;26.10;52.20;;;;;;220544;1268;23918;-57
2022/06/25 01:00:42;;;;;;;3.30;2.30;;;26.10;52.20;;;;;;220634;1268;23027;-49
2022/06/25 01:05:45;;;;;;;3.70;2.50;;;26.10;52.30;;;;;;220611;1268;25369;-48
2022/06/25 01:10:47;;;;;;;5.10;2.90;;;26.10;52.20;;;;;;220533;1268;24193;-47
2022/06/25 01:15:50;;;;;;;5.00;2.80;;;26.10;52.20;;;;;;220435;1268;22738;-51
2022/06/25 01:20:53;;;;;;;3.10;2.40;;;26.00;52.90;;;;;;219956;1268;567593;-50
2022/06/25 01:25:56;;;;;;;4.30;2.80;;;26.00;52.10;;;;;;220730;1268;22592;-47
2022/06/25 01:30:58;;;;;;;3.70;2.80;;;26.00;52.10;;;;;;220897;1268;22557;-52
2022/06/25 01:36:01;;;;;;;3.80;2.50;;;26.00;52.20;;;;;;220552;1268;25934;-53
2022/06/25 01:41:03;;;;;;;3.80;2.30;;;26.10;52.60;;;;;;220540;1268;22619;-47
2022/06/25 01:46:08;;;;;;;3.60;2.50;;;26.00;52.30;;;;;;220468;1268;26488;-49
2022/06/25 01:51:15;;;;;;;2.90;2.30;;;26.00;52.60;;;;;;220579;1268;22816;-47
2022/06/25 01:56:17;;;;;;;6.30;2.70;;;26.00;52.40;;;;;;220724;1268;24583;-51
2022/06/25 02:01:20;;;;;;;4.30;2.50;;;26.00;52.30;;;;;;220493;1268;24726;-49
2022/06/25 02:06:23;;;;;;;3.90;2.50;;;26.00;52.30;;;;;;220569;1268;22610;-46
2022/06/25 02:11:25;;;;;;;3.80;2.70;;;26.00;52.40;;;;;;220852;1268;25324;-47
2022/06/25 02:16:28;;;;;;;6.20;2.70;;;26.00;52.70;;;;;;221111;1268;22844;-46
2022/06/25 02:21:31;;;;;;;5.30;2.50;;;26.00;52.40;;;;;;220587;1268;22535;-52
2022/06/25 02:26:33;;;;;;;3.20;2.40;;;26.00;52.50;;;;;;220552;1268;24218;-49
2022/06/25 02:31:35;;;;;;;3.00;2.50;;;26.00;52.40;;;;;;220567;1268;22566;-48
2022/06/25 02:36:40;;;;;;;3.60;2.60;;;26.00;52.40;;;;;;220505;1268;25309;-47
2022/06/25 02:41:43;;;;;;;3.50;2.70;;;26.00;52.80;;;;;;220610;1268;22548;-50
2022/06/25 02:46:45;;;;;;;3.90;2.70;;;26.00;52.40;;;;;;220477;1268;23339;-52
2022/06/25 02:51:47;;;;;;;3.60;2.40;;;26.00;52.50;;;;;;220557;1268;22967;-49
2022/06/25 03:02:19;;;;;;;3.50;2.50;;;26.00;52.50;;;;;;220819;1268;22549;-49
2022/06/25 03:07:22;;;;;;;5.50;2.90;;;26.00;52.50;;;;;;220666;1267;22723;-49
2022/06/25 03:12:31;;;;;;;4.20;2.30;;;26.00;52.50;;;;;;220553;1266;22557;-53
2022/06/25 03:17:56;;;;;;;4.80;2.70;;;26.00;52.50;;;;;;220354;1267;22568;-50
2022/06/25 03:23:19;;;;;;;2.50;2.10;;;26.00;52.50;;;;;;220548;1267;24336;-49
2022/06/25 03:28:22;;;;;;;4.20;2.60;;;26.00;52.50;;;;;;221057;1268;24369;-48
2022/06/25 03:33:26;;;;;;;4.00;2.90;;;26.00;52.50;;;;;;220772;1268;22551;-49
2022/06/25 03:38:52;;;;;;;3.70;2.40;;;25.90;52.50;;;;;;220084;1267;24578;-51
2022/06/25 03:43:56;;;;;;;4.20;2.70;;;26.00;52.40;;;;;;220877;1268;22826;-49
2022/06/25 03:49:00;;;;;;;3.60;2.70;;;26.00;52.40;;;;;;220477;1268;24341;-49
2022/06/25 03:54:25;;;;;;;10.30;3.20;;;26.00;52.50;;;;;;220480;1268;23047;-51
2022/06/25 03:59:28;;;;;;;5.90;2.80;;;26.00;53.10;;;;;;220644;1268;22700;-48
2022/06/25 04:04:34;;;;;;;5.50;2.70;;;25.90;52.50;;;;;;220629;1268;24359;-50
2022/06/25 04:09:38;;;;;;;6.40;2.90;;;25.90;52.50;;;;;;220408;1268;24225;-48
2022/06/25 04:14:40;;;;;;;8.20;2.80;;;25.90;52.50;;;;;;220376;1268;24670;-47
2022/06/25 04:19:43;;;;;;;4.20;2.50;;;25.90;52.50;;;;;;220631;1268;22875;-49
2022/06/25 04:24:47;;;;;;;4.10;2.40;;;25.90;52.60;;;;;;220603;1268;22995;-48
2022/06/25 04:29:50;;;;;;;3.00;2.60;;;25.90;52.50;;;;;;220838;1268;22553;-49
2022/06/25 04:34:57;;;;;;;3.90;2.40;;;25.90;52.50;;;;;;220623;1268;22602;-51
2022/06/25 04:39:59;;;;;;;3.10;2.60;;;25.90;52.50;;;;;;220407;1268;24206;-50
2022/06/25 04:45:03;;;;;;;5.10;2.60;;;26.00;52.50;;;;;;220648;1268;22560;-54
2022/06/25 04:50:10;;;;;;;3.00;2.20;;;26.00;52.50;;;;;;220323;1267;22571;-52
2022/06/25 04:55:13;;;;;;;3.60;2.20;;;25.90;52.50;;;;;;220591;1268;23906;-49
2022/06/25 05:00:15;;;;;;;7.50;2.80;;;26.00;52.90;;;;;;220892;1268;22657;-52
2022/06/25 05:05:18;;;;;;;2.90;2.20;;;25.90;52.50;;;;;;220700;1268;22546;-49
2022/06/25 05:10:20;;;;;;;4.40;2.80;;;26.00;52.50;;;;;;220925;1265;24306;-49
2022/06/25 05:15:23;;;;;;;3.30;2.20;;;25.90;52.50;;;;;;220743;1268;22590;-48
2022/06/25 05:20:25;;;;;;;4.60;2.70;;;26.00;52.60;;;;;;220874;1268;25309;-52
2022/06/25 05:25:28;;;;;;;3.20;2.40;;;25.90;52.50;;;;;;220562;1268;22686;-49
2022/06/25 05:30:34;;;;;;;4.70;2.40;;;26.00;52.60;;;;;;220674;1268;25292;-49
2022/06/25 05:35:37;;;;;;;5.10;2.80;;;25.90;52.50;;;;;;220554;1267;22554;-49
2022/06/25 05:40:41;;;;;;;6.00;2.80;;;26.00;52.50;;;;;;220336;1267;25244;-49
2022/06/25 05:45:43;;;;;;;7.30;3.00;;;25.90;52.50;;;;;;220211;1267;22974;-50
2022/06/25 05:50:46;;;;;;;3.90;2.60;;;26.00;52.50;;;;;;220541;1268;25353;-50
2022/06/25 05:55:48;;;;;;;3.00;2.30;;;26.00;52.50;;;;;;220460;1268;24276;-48
2022/06/25 06:00:51;;;;;;;6.20;2.50;;;25.90;52.50;;;;;;220482;1268;24336;-49
2022/06/25 06:05:53;;;;;;;3.50;2.30;;;25.90;52.50;;;;;;220461;1267;24274;-48
2022/06/25 06:10:55;;;;;;;7.10;3.00;;;26.00;52.50;;;;;;220611;1268;22531;-48
2022/06/25 06:15:58;;;;;;;3.00;2.20;;;25.90;52.50;;;;;;220464;1268;22601;-50
2022/06/25 06:21:01;;;;;;;13.00;3.20;;;25.90;52.40;;;;;;220476;1267;25245;-50
2022/06/25 06:26:05;;;;;;;7.40;2.90;;;26.00;53.00;;;;;;220518;1268;25363;-49
2022/06/25 06:31:07;;;;;;;4.80;2.60;;;26.00;52.40;;;;;;220464;1268;22798;-49
2022/06/25 06:36:10;;;;;;;5.20;2.60;;;26.00;52.40;;;;;;220528;1268;26042;-47
2022/06/25 06:41:16;;;;;;;3.90;2.40;;;26.00;52.30;;;;;;220805;1268;24519;-53
2022/06/25 06:46:19;;;;;;;2.90;2.30;;;26.00;52.00;;;;;;220899;1268;22554;-49
2022/06/25 06:51:25;;;;;;;5.00;2.70;;;26.00;52.20;;;;;;220987;1268;22611;-51
2022/06/25 06:56:27;;;;;;;5.70;2.40;;;26.00;52.10;;;;;;220859;1268;25226;-51
2022/06/25 07:01:30;;;;;;;7.20;2.90;;;26.00;52.10;;;;;;221008;1268;24277;-52
2022/06/25 07:06:33;;;;;;;4.40;2.20;;;26.00;52.10;;;;;;221083;1268;22562;-51
2022/06/25 07:11:36;;;;;;;2.90;2.30;;;26.10;52.20;;;;;;220962;1268;22749;-53
2022/06/25 07:16:38;;;;;;;4.80;2.70;;;26.10;52.10;;;;;;220553;1268;24414;-49
2022/06/25 07:21:41;;;;;;;5.30;2.40;;;26.10;52.00;;;;;;220848;1267;22698;-52
2022/06/25 07:26:43;;;;;;;3.70;2.50;;;26.10;52.10;;;;;;220791;1268;24270;-49
2022/06/25 07:31:45;;;;;;;3.40;2.40;;;26.20;52.10;;;;;;220623;1268;22544;-46
2022/06/25 07:36:50;;;;;;;3.00;2.10;;;26.20;52.20;;;;;;220714;1268;22602;-55
2022/06/25 07:41:53;;;;;;;3.00;2.20;;;26.20;52.10;;;;;;220749;1268;24203;-50
2022/06/25 07:46:55;;;;;;;2.90;2.20;;;26.20;52.00;;;;;;221010;1268;24250;-48
2022/06/25 07:51:59;;;;;;;3.70;2.60;;;26.20;52.00;;;;;;220733;1268;22602;-51
2022/06/25 07:57:01;;;;;;;9.90;2.90;;;26.20;52.10;;;;;;220990;1268;23125;-51
2022/06/25 08:02:05;;;;;;;4.50;2.40;;;26.30;52.10;;;;;;221000;1268;24208;-48
2022/06/25 08:07:07;;;;;;;3.20;2.30;;;26.30;52.10;;;;;;220864;1268;22680;-50
2022/06/25 08:12:11;;;;;;;3.60;2.60;;;26.20;52.10;;;;;;220571;1267;22556;-49
2022/06/25 08:17:14;;;;;;;3.10;2.30;;;26.30;52.10;;;;;;220608;1269;25699;-50
2022/06/25 08:22:18;;;;;;;4.90;2.60;;;26.30;52.80;;;;;;220801;1268;25444;-48
2022/06/25 08:27:20;;;;;;;4.70;2.50;;;26.30;52.40;;;;;;221096;1268;24268;-51
2022/06/25 08:32:23;;;;;;;5.00;2.60;;;26.30;52.10;;;;;;220791;1268;25223;-51
2022/06/25 08:37:28;;;;;;;3.40;2.30;;;26.30;52.00;;;;;;221154;1268;22534;-51
2022/06/25 08:42:30;;;;;;;3.60;2.40;;;26.40;52.10;;;;;;221073;1268;23508;-50
2022/06/25 08:47:43;;;;;;;3.90;2.60;;;26.40;52.10;;;;;;220722;1268;22560;-50
2022/06/25 08:52:51;;;;;;;4.80;3.00;;;26.40;52.10;;;;;;220919;1268;22553;-49
2022/06/25 08:57:54;;;;;;;9.00;2.90;;;26.40;52.00;;;;;;220843;1268;23590;-51
2022/06/25 09:02:57;;;;;;;5.70;2.70;;;26.40;52.30;;;;;;221032;1268;22573;-52
2022/06/25 09:08:03;;;;;;;7.20;2.70;;;26.40;52.00;;;;;;220711;1268;25617;-50
2022/06/25 09:13:08;;;;;;;7.80;3.00;;;26.50;52.00;;;;;;220764;1268;22573;-57
2022/06/25 09:18:13;;;;;;;6.30;2.80;;;26.50;52.00;;;;;;220897;1268;22556;-51
2022/06/25 09:23:17;;;;;;;3.80;2.60;;;26.50;52.00;;;;;;220699;1268;22773;-49
2022/06/25 09:28:34;;;;;;;3.80;2.40;;;26.50;52.00;;;;;;220547;1268;22551;-50
2022/06/25 09:33:38;;;;;;;7.90;2.70;;;26.60;52.00;;;;;;221056;1268;22578;-51
2022/06/25 09:38:52;;;;;;;4.90;2.60;;;26.50;51.90;;;;;;220988;1268;24252;-53
2022/06/25 09:43:54;;;;;;;6.70;2.90;;;26.60;51.90;;;;;;220475;1268;22557;-51
2022/06/25 09:48:57;;;;;;;4.70;2.10;;;26.60;51.90;;;;;;220594;1268;22969;-50
2022/06/25 09:54:01;;;;;;;3.00;2.50;;;26.60;51.90;;;;;;220835;1268;24278;-50
2022/06/25 09:59:07;;;;;;;4.50;2.50;;;26.70;51.90;;;;;;220991;1268;24228;-55
2022/06/25 10:04:13;;;;;;;3.00;2.30;;;26.70;51.80;;;;;;220545;1268;26548;-51
2022/06/25 10:09:20;;;;;;;3.10;2.40;;;26.80;51.80;;;;;;220921;1268;24295;-50
2022/06/25 10:14:25;;;;;;;4.30;2.50;;;26.80;52.20;;;;;;221140;1268;22829;-52
2022/06/25 10:19:30;;;;;;;5.70;2.80;;;26.80;51.80;;;;;;220713;1268;22542;-49
2022/06/25 10:24:34;;;;;;;2.70;2.40;;;26.90;51.80;;;;;;220835;1268;22535;-49
2022/06/25 10:29:37;;;;;;;3.60;2.50;;;26.90;51.80;;;;;;220664;1268;22546;-49
2022/06/25 10:35:01;;;;;;;2.90;2.20;;;26.90;51.70;;;;;;220942;1268;24277;-52
2022/06/25 10:40:07;;;;;;;3.30;2.40;;;26.90;51.70;;;;;;220910;1268;22664;-50
2022/06/25 10:45:13;;;;;;;2.70;2.40;;;27.00;51.70;;;;;;220895;1268;25554;-49
2022/06/25 10:50:20;;;;;;;3.80;2.40;;;26.90;51.60;;;;;;220701;1268;25305;-52
2022/06/25 10:55:22;;;;;;;3.20;2.40;;;27.00;52.10;;;;;;220658;1268;24268;-50
2022/06/25 11:00:24;;;;;;;6.00;2.80;;;27.00;52.30;;;;;;220690;1268;25238;-51
2022/06/25 11:05:40;;;;;;;2.90;2.30;;;27.00;51.70;;;;;;220866;1270;24364;-51
2022/06/25 11:10:42;;;;;;;3.00;2.30;;;27.10;51.70;;;;;;220916;1268;25336;-51
2022/06/25 11:15:45;;;;;;;3.70;2.70;;;27.10;52.00;;;;;;220728;1268;22539;-53
2022/06/25 11:20:47;;;;;;;3.10;2.60;;;27.10;51.90;;;;;;220889;1268;24440;-48
2022/06/25 11:31:17;;;;;;;2.90;2.60;;;27.20;51.50;;;;;;220571;1269;23927;-50
2022/06/25 11:36:21;;;;;;;3.00;2.30;;;27.20;51.80;;;;;;220553;1267;22526;-50
2022/06/25 11:41:32;;;;;;;3.40;2.70;;;27.20;51.40;;;;;;221103;1270;22639;-49
2022/06/25 11:46:35;;;;;;;3.30;2.60;;;27.30;51.80;;;;;;220970;1270;22534;-51
2022/06/25 11:51:49;;;;;;;3.30;2.80;;;27.30;51.50;;;;;;220789;1268;24389;-48
2022/06/25 11:56:54;;;;;;;3.70;2.80;;;27.30;51.40;;;;;;220854;1269;24350;-48
2022/06/25 12:02:03;;;;;;;3.30;2.60;;;27.40;51.80;;;;;;220831;1270;22682;-47
2022/06/25 12:07:05;;;;;;;3.60;2.50;;;27.40;51.50;;;;;;220480;1270;24230;-49
2022/06/25 12:12:07;;;;;;;3.60;2.70;;;27.40;51.50;;;;;;220528;1268;24211;-50
2022/06/25 12:17:10;;;;;;;3.70;2.60;;;27.40;51.50;;;;;;220916;1269;24277;-51
2022/06/25 12:22:26;;;;;;;2.80;2.50;;;27.40;51.50;;;;;;220582;1268;22546;-51
2022/06/25 12:27:29;;;;;;;2.90;2.50;;;27.40;51.50;;;;;;220526;1268;23914;-51
2022/06/25 12:32:43;;;;;;;5.80;3.40;;;27.50;51.80;;;;;;220469;1269;22721;-49
2022/06/25 12:38:17;;;;;;;3.60;2.80;;;27.50;51.50;;;;;;221050;1270;24014;-50
2022/06/25 12:43:21;;;;;;;2.80;2.40;;;27.50;51.90;;;;;;220521;1270;24698;-53
2022/06/25 12:48:32;;;;;;;3.20;2.70;;;27.50;51.50;;;;;;221036;1268;22559;-49
2022/06/25 12:53:38;;;;;;;4.80;2.90;;;27.50;51.60;;;;;;220619;1268;24217;-52
2022/06/25 12:58:44;;;;;;;3.10;2.70;;;27.50;51.50;;;;;;220671;1271;24290;-51
2022/06/25 13:03:47;;;;;;;4.10;2.90;;;27.50;51.50;;;;;;220622;1270;22823;-47
2022/06/25 13:08:49;;;;;;;3.50;2.90;;;27.50;51.50;;;;;;220752;1268;22525;-47
2022/06/25 13:13:52;;;;;;;3.90;2.60;;;27.50;51.50;;;;;;220565;1268;22566;-51
2022/06/25 13:18:55;;;;;;;5.40;3.10;;;27.50;51.50;;;;;;220245;1268;474894;-50
2022/06/25 13:23:57;;;;;;;5.30;2.90;;;27.60;51.50;;;;;;220484;1268;23906;-50
2022/06/25 13:29:00;;;;;;;3.60;3.00;;;27.60;51.80;;;;;;220671;1269;24388;-50
2022/06/25 13:34:03;;;;;;;3.90;2.70;;;27.60;51.40;;;;;;221028;1268;22542;-47
2022/06/25 13:39:08;;;;;;;3.60;3.00;;;27.60;51.50;;;;;;220702;1268;25061;-49
2022/06/25 13:44:11;;;;;;;4.60;3.20;;;27.60;51.50;;;;;;221087;1269;24233;-50
2022/06/25 13:49:13;;;;;;;3.40;3.00;;;27.60;51.50;;;;;;220816;1270;24210;-51
2022/06/25 13:54:16;;;;;;;3.20;2.90;;;27.60;51.50;;;;;;220821;1268;22788;-49
2022/06/25 13:59:18;;;;;;;4.90;2.40;;;27.60;51.60;;;;;;221038;1271;24306;-52
2022/06/25 14:04:21;;;;;;;7.60;3.50;;;27.60;51.60;;;;;;220845;1268;22765;-48
2022/06/25 14:09:23;;;;;;;3.50;2.80;;;27.60;51.80;;;;;;220862;1268;22728;-49
2022/06/25 14:14:26;;;;;;;3.10;2.80;;;27.60;51.60;;;;;;220613;1268;22604;-51
2022/06/25 14:19:29;;;;;;;4.20;3.00;;;27.60;51.50;;;;;;220864;1270;22537;-51
2022/06/25 14:29:52;;;;;;;3.10;2.70;;;27.60;51.60;;;;;;221023;1268;24163;-47
2022/06/25 14:34:58;;;;;;;6.90;3.40;;;27.60;51.60;;;;;;220772;1268;23011;-49
2022/06/25 14:45:21;;;;;;;3.20;2.70;;;27.60;51.80;;;;;;220523;1268;24302;-48
2022/06/25 14:50:24;;;;;;;4.50;3.10;;;27.60;51.50;;;;;;220563;1270;22674;-49
2022/06/25 14:55:27;;;;;;;3.90;2.90;;;27.60;51.80;;;;;;220382;1268;22557;-49
2022/06/25 15:00:32;;;;;;;3.00;2.60;;;27.60;51.50;;;;;;220672;1268;24212;-51
2022/06/25 15:05:36;;;;;;;5.30;3.10;;;27.60;51.50;;;;;;220694;1268;22583;-52
2022/06/25 15:10:42;;;;;;;4.30;3.00;;;27.60;51.60;;;;;;220598;1268;24228;-48
2022/06/25 15:15:53;;;;;;;3.30;2.80;;;27.60;51.50;;;;;;220539;1268;22698;-53
2022/06/25 15:20:57;;;;;;;4.00;3.00;;;27.60;51.40;;;;;;220670;1268;24268;-48
2022/06/25 15:25:59;;;;;;;3.10;2.80;;;27.60;51.50;;;;;;220535;1268;25363;-50
2022/06/25 15:31:03;;;;;;;4.60;3.20;;;27.60;51.60;;;;;;221066;1267;22785;-53
2022/06/25 15:36:06;;;;;;;3.90;2.90;;;27.60;51.60;;;;;;221052;1268;24415;-49
2022/06/25 15:41:10;;;;;;;3.60;3.10;;;27.60;51.60;;;;;;220844;1268;22616;-51
2022/06/25 15:46:14;;;;;;;3.60;3.00;;;27.60;51.60;;;;;;220771;1268;22551;-47
2022/06/25 15:51:17;;;;;;;9.00;4.00;;;27.60;51.70;;;;;;220974;1268;22560;-47
2022/06/25 15:56:19;;;;;;;3.20;2.80;;;27.60;51.70;;;;;;220767;1268;22579;-48
2022/06/25 16:01:24;;;;;;;3.40;3.10;;;27.60;51.60;;;;;;221016;1269;25299;-50
2022/06/25 16:06:27;;;;;;;4.10;2.90;;;27.60;51.90;;;;;;220894;1268;24399;-49
2022/06/25 16:11:33;;;;;;;3.00;2.70;;;27.60;51.60;;;;;;220563;1268;25267;-50
2022/06/25 16:16:37;;;;;;;3.50;2.80;;;27.60;51.70;;;;;;220908;1268;24259;-49
2022/06/25 16:21:46;;;;;;;3.30;3.00;;;27.60;51.70;;;;;;220947;1268;22553;-49
2022/06/25 16:26:49;;;;;;;7.30;3.80;;;27.60;51.70;;;;;;220906;1268;25302;-50
2022/06/25 16:31:53;;;;;;;8.30;3.60;;;27.60;51.70;;;;;;220702;1268;25245;-51
2022/06/25 16:36:58;;;;;;;6.90;3.50;;;27.60;51.70;;;;;;221004;1268;22553;-53
2022/06/25 16:42:01;;;;;;;5.20;3.40;;;27.60;51.70;;;;;;220884;1268;23166;-51
2022/06/25 16:47:03;;;;;;;3.60;3.20;;;27.60;51.70;;;;;;220970;1268;22720;-52
2022/06/25 16:52:06;;;;;;;4.50;2.80;;;27.60;51.80;;;;;;221051;1268;22706;-47
2022/06/25 16:57:09;;;;;;;4.80;3.30;;;27.60;51.70;;;;;;220556;1268;22626;-50
2022/06/25 17:02:13;;;;;;;4.40;3.20;;;27.60;51.80;;;;;;220793;1268;24299;-55
2022/06/25 17:07:17;;;;;;;3.80;3.30;;;27.60;51.80;;;;;;220908;1268;22558;-49
2022/06/25 17:12:34;;;;;;;4.70;3.20;;;27.60;51.80;;;;;;220676;1268;26593;-47
2022/06/25 17:17:38;;;;;;;3.20;2.90;;;27.60;52.20;;;;;;220972;1268;26533;-49
2022/06/25 17:22:48;;;;;;;5.20;3.20;;;27.60;52.20;;;;;;220737;1268;22701;-47
2022/06/25 17:27:50;;;;;;;3.20;2.70;;;27.60;51.90;;;;;;220553;1268;24214;-51
2022/06/25 17:32:52;;;;;;;3.20;2.90;;;27.50;51.90;;;;;;221027;1268;22571;-48
2022/06/25 17:37:55;;;;;;;3.10;2.60;;;27.50;51.90;;;;;;220517;1267;24429;-50
2022/06/25 17:42:58;;;;;;;3.20;2.90;;;27.50;52.50;;;;;;220918;1268;22571;-47
2022/06/25 17:48:01;;;;;;;3.30;3.00;;;27.50;52.00;;;;;;220977;1268;25194;-48
2022/06/25 17:53:04;;;;;;;3.10;2.80;;;27.50;51.90;;;;;;220708;1268;22551;-50
2022/06/25 17:58:07;;;;;;;2.90;2.60;;;27.50;51.90;;;;;;221109;1268;25305;-48
2022/06/25 18:03:09;;;;;;;3.90;3.10;;;27.50;52.00;;;;;;220889;1268;24361;-48
2022/06/25 18:08:12;;;;;;;4.80;3.00;;;27.50;52.00;;;;;;220622;1268;24832;-51
2022/06/25 18:13:14;;;;;;;3.60;2.70;;;27.50;52.00;;;;;;220733;1268;22580;-50
2022/06/25 18:18:16;;;;;;;5.20;3.10;;;27.50;52.20;;;;;;220544;1268;24210;-47
2022/06/25 18:23:19;;;;;;;3.20;2.90;;;27.50;52.10;;;;;;220505;1268;22778;-48
2022/06/25 18:28:26;;;;;;;3.40;3.00;;;27.50;52.10;;;;;;220627;1268;22707;-50
2022/06/25 18:33:30;;;;;;;3.70;2.80;;;27.50;52.20;;;;;;220652;1268;22585;-50
2022/06/25 18:38:33;;;;;;;4.10;3.20;;;27.50;52.20;;;;;;220453;1268;24310;-53
2022/06/25 18:43:35;;;;;;;4.50;3.20;;;27.40;52.20;;;;;;220479;1268;22567;-50
2022/06/25 18:48:38;;;;;;;8.70;3.70;;;27.40;52.20;;;;;;221064;1268;23290;-49
2022/06/25 18:53:40;;;;;;;3.30;3.00;;;27.40;52.20;;;;;;220919;1268;22552;-48
2022/06/25 18:58:42;;;;;;;4.40;2.90;;;27.40;52.20;;;;;;220790;1268;22580;-48
2022/06/25 19:03:45;;;;;;;4.80;3.40;;;27.50;52.30;;;;;;221003;1268;22676;-50
2022/06/25 19:08:48;;;;;;;6.50;3.40;;;27.40;52.30;;;;;;221002;1268;22700;-50
2022/06/25 19:13:50;;;;;;;3.30;3.00;;;27.40;52.30;;;;;;220643;1268;22532;-48
2022/06/25 19:18:55;;;;;;;3.40;3.00;;;27.40;52.30;;;;;;220901;1268;23181;-49
2022/06/25 19:23:58;;;;;;;3.70;2.90;;;27.40;52.30;;;;;;220565;1268;22538;-50
2022/06/25 19:29:02;;;;;;;3.40;2.80;;;27.40;52.40;;;;;;221014;1268;26491;-50
2022/06/25 19:34:08;;;;;;;3.20;2.60;;;27.40;52.40;;;;;;220780;1268;22544;-49
2022/06/25 19:39:10;;;;;;;3.80;2.80;;;27.40;52.60;;;;;;220873;1268;24409;-52
2022/06/25 19:44:14;;;;;;;5.00;3.00;;;27.30;52.40;;;;;;220885;1268;22541;-52
2022/06/25 19:49:17;;;;;;;3.50;3.20;;;27.30;52.50;;;;;;220615;1268;22706;-49
2022/06/25 19:54:23;;;;;;;3.90;2.90;;;27.30;52.60;;;;;;221106;1268;22544;-49
2022/06/25 19:59:28;;;;;;;4.20;3.10;;;27.30;52.50;;;;;;221047;1268;24264;-50
2022/06/25 20:04:38;;;;;;;3.40;3.10;;;27.30;52.60;;;;;;220824;1267;24405;-48
2022/06/25 20:09:52;;;;;;;4.00;3.20;;;27.30;52.60;;;;;;220748;1268;24755;-49
2022/06/25 20:15:06;;;;;;;4.50;2.80;;;27.30;52.60;;;;;;220620;1267;22542;-48
2022/06/25 20:20:10;;;;;;;3.50;3.20;;;27.30;52.70;;;;;;220372;1268;24118;-52
2022/06/25 20:25:16;;;;;;;4.50;3.60;;;27.30;53.00;;;;;;220423;1268;25251;-48
2022/06/25 20:30:19;;;;;;;4.10;3.20;;;27.30;52.80;;;;;;220775;1267;25484;-50
2022/06/25 20:35:25;;;;;;;4.20;3.10;;;27.30;53.10;;;;;;220852;1267;24247;-51
2022/06/25 20:40:29;;;;;;;4.70;3.60;;;27.20;52.80;;;;;;220810;1268;22539;-50
2022/06/25 20:45:34;;;;;;;6.80;3.50;;;27.20;52.70;;;;;;221049;1268;22564;-48
2022/06/25 20:50:37;;;;;;;8.00;3.70;;;27.20;52.80;;;;;;220800;1268;22661;-51
2022/06/25 20:55:40;;;;;;;4.60;3.10;;;27.20;53.10;;;;;;220793;1268;24082;-47
2022/06/25 21:00:48;;;;;;;5.20;3.10;;;27.20;53.10;;;;;;220618;1268;24238;-48
2022/06/25 21:11:14;;;;;;;4.70;3.30;;;27.20;52.90;;;;;;220858;1268;24056;-47
2022/06/25 21:16:21;;;;;;;7.20;3.80;;;27.20;53.20;;;;;;221080;1266;24504;-50
2022/06/25 21:21:29;;;;;;;4.70;3.00;;;27.20;53.00;;;;;;221098;1268;24256;-48
2022/06/25 21:26:35;;;;;;;4.50;3.00;;;27.20;53.00;;;;;;221014;1268;25477;-50
2022/06/25 21:31:39;;;;;;;3.60;3.20;;;27.10;52.90;;;;;;220498;1268;25387;-47
2022/06/25 21:36:43;;;;;;;3.70;2.80;;;27.10;53.60;;;;;;221004;1268;24210;-49
2022/06/25 21:41:46;;;;;;;4.80;3.30;;;27.10;53.30;;;;;;220666;1268;22544;-50
2022/06/25 21:46:49;;;;;;;5.10;3.40;;;27.10;53.10;;;;;;220996;1265;25403;-52
2022/06/25 21:51:51;;;;;;;6.70;3.50;;;27.10;53.50;;;;;;220819;1267;23546;-51
2022/06/25 21:56:55;;;;;;;4.50;3.00;;;27.10;53.10;;;;;;220895;1268;25476;-47
2022/06/25 22:01:57;;;;;;;5.10;3.70;;;27.10;53.50;;;;;;220813;1268;22693;-52
2022/06/25 22:07:00;;;;;;;7.60;3.70;;;27.10;53.50;;;;;;221083;1268;24298;-47
2022/06/25 22:12:03;;;;;;;3.70;2.90;;;27.10;53.20;;;;;;220600;1268;25470;-48
2022/06/25 22:17:05;;;;;;;6.90;3.80;;;27.10;52.90;;;;;;221113;1268;22550;-48
2022/06/25 22:22:08;;;;;;;4.40;3.00;;;27.10;53.30;;;;;;220838;1268;22550;-49
2022/06/25 22:27:11;;;;;;;5.50;3.40;;;27.10;53.30;;;;;;220723;1268;22535;-48
2022/06/25 22:32:14;;;;;;;6.50;3.00;;;27.10;53.30;;;;;;220745;1268;22576;-49
2022/06/25 22:37:16;;;;;;;7.90;3.40;;;27.10;53.30;;;;;;220851;1268;25235;-49
2022/06/25 22:42:19;;;;;;;4.20;3.10;;;27.00;53.30;;;;;;221018;1268;22596;-50
2022/06/25 22:47:22;;;;;;;6.40;3.20;;;27.00;53.30;;;;;;221000;1268;24221;-52
2022/06/25 22:52:24;;;;;;;6.50;3.60;;;27.00;53.30;;;;;;220602;1268;22531;-51
2022/06/25 22:57:26;;;;;;;5.00;3.20;;;27.00;53.30;;;;;;220677;1268;22629;-52
2022/06/25 23:02:29;;;;;;;4.10;2.90;;;27.00;53.40;;;;;;220740;1268;24402;-49
2022/06/25 23:07:34;;;;;;;5.20;3.10;;;27.00;53.40;;;;;;220925;1268;22539;-51
2022/06/25 23:12:40;;;;;;;5.10;3.30;;;27.00;53.40;;;;;;221196;1268;25301;-48
2022/06/25 23:17:46;;;;;;;7.70;3.70;;;27.00;53.40;;;;;;220652;1268;22619;-50
2022/06/25 23:22:48;;;;;;;5.40;3.30;;;27.00;53.80;;;;;;220859;1268;24386;-47
2022/06/25 23:27:54;;;;;;;3.60;2.90;;;27.00;53.50;;;;;;220964;1268;22694;-49
2022/06/25 23:33:02;;;;;;;5.30;3.10;;;27.00;53.50;;;;;;220674;1268;24419;-48
2022/06/25 23:38:04;;;;;;;5.50;3.30;;;27.00;53.50;;;;;;220438;1268;25223;-52
2022/06/25 23:43:06;;;;;;;5.80;3.40;;;26.90;53.50;;;;;;220722;1267;24192;-51
2022/06/25 23:48:09;;;;;;;4.00;3.40;;;26.90;53.50;;;;;;220965;1267;25364;-48
2022/06/25 23:53:12;;;;;;;10.00;3.80;;;26.90;53.90;;;;;;221011;1268;26481;-52
2022/06/25 23:58:15;;;;;;;5.00;3.60;;;26.90;53.30;;;;;;220937;1268;24208;-49
